Burnsville, Minnesota
Current Conditions -  °F | °C
As of 6:53 AM on Thursday 30 Oct 2014 (Local Time) from KMSP Reporting Station
Overcast Overcast  
Wind Chill: 36°   Ceiling: 5000
Heat Index: 39°   Visibility: 8mi
Dew Point: 33°   Wind: 5mph
Humidity: 79%   Direction: 100°E
Pressure: 30.05"   Gusts: NA
Location:  44.77°N, 93.27°W
Report Text: KMSP 301153Z 10004KT 8SM OVC050 04/01 A3005 RMK AO2 SLP181 T00390006 10039 20028 56001
Loading
Personal Weather Stations






























Interactive Weather Map
Tropical Storm Tracking
New forecast layout! Learn more

10-Day Weather Forecast

Advertisements
Track Severe Weather on mobile